Time;durP1;ratioP1;P1;durP2;ratioP2;P2;SDS_P1;SDS_P2;PMS_P1;PMS_P2;Temp;Humidity;BMP_temperature;BMP_pressure;BME280_temperature;BME280_humidity;BME280_pressure;Samples;Min_cycle;Max_cycle;Signal;HPM_P1;HPM_P2
2021/12/12 00:00:11;;;;;;;;;;;;;;;8.88;57.50;101097.00;4954013;28;7006;-75
2021/12/12 00:02:57;;;;;;;;;;;;;;;8.91;57.80;101101.44;4999138;28;7473;-75
2021/12/12 00:05:40;;;;;;;;;;;;;;;8.93;57.34;101099.84;4994038;28;7200;-75
2021/12/12 00:08:07;;;;;;;;;;;;;;;8.96;57.74;101105.16;4997104;28;7071;-75
2021/12/12 00:10:38;;;;;;;;;;;;;;;8.98;57.24;101101.06;4967086;28;7203;-75
2021/12/12 00:13:16;;;;;;;;;;;;;;;9.02;57.35;101094.44;4967503;28;7087;-75
2021/12/12 00:15:42;;;;;;;;;;;;;;;9.04;56.63;101100.56;4984918;28;8424;-75
2021/12/12 00:18:08;;;;;;;;;;;;;;;9.08;56.52;101099.06;5001790;28;6831;-75
2021/12/12 00:20:37;;;;;;;;;;;;;;;9.09;56.48;101101.72;4984540;28;6919;-75
2021/12/12 00:23:05;;;;;;;;;;;;;;;9.11;57.20;101095.03;4986912;28;6808;-75
2021/12/12 00:25:43;;;;;;;;;;;;;;;9.14;57.49;101099.47;4985222;28;7002;-75
2021/12/12 00:28:12;;;;;;;;;;;;;;;9.18;56.95;101093.78;4991175;28;6827;-75
2021/12/12 00:30:38;;;;;;;;;;;;;;;9.20;56.72;101086.19;4994995;28;6815;-75
2021/12/12 00:33:05;;;;;;;;;;;;;;;9.23;56.35;101088.97;4988883;28;7927;-75
2021/12/12 00:35:32;;;;;;;;;;;;;;;9.26;56.27;101082.34;4936253;28;7550;-75
2021/12/12 00:38:05;;;;;;;;;;;;;;;9.27;56.36;101086.72;4988245;28;7015;-75
2021/12/12 00:40:40;;;;;;;;;;;;;;;9.31;56.97;101082.66;4989870;28;6930;-75
2021/12/12 00:43:27;;;;;;;;;;;;;;;9.31;56.61;101085.22;5000676;28;7452;-76
2021/12/12 00:45:59;;;;;;;;;;;;;;;9.33;56.53;101085.31;4987690;28;7735;-75
2021/12/12 00:48:28;;;;;;;;;;;;;;;9.36;56.27;101076.16;4990151;28;7037;-75
2021/12/12 00:50:56;;;;;;;;;;;;;;;9.39;56.80;101085.72;5008508;28;6829;-75
2021/12/12 00:53:22;;;;;;;;;;;;;;;9.41;56.06;101079.03;5002196;28;6947;-76
2021/12/12 00:55:51;;;;;;;;;;;;;;;9.45;56.86;101080.97;4965200;28;7221;-75
2021/12/12 00:58:19;;;;;;;;;;;;;;;9.46;55.51;101077.63;4975609;28;7152;-75
2021/12/12 01:00:55;;;;;;;;;;;;;;;9.52;56.60;101077.16;4993044;28;6990;-75
2021/12/12 01:03:29;;;;;;;;;;;;;;;9.54;56.19;101079.00;5007440;28;6824;-75
2021/12/12 01:05:59;;;;;;;;;;;;;;;9.56;56.53;101068.88;5006851;28;6982;-75
2021/12/12 01:08:28;;;;;;;;;;;;;;;9.59;55.66;101069.06;4999651;28;6887;-75
2021/12/12 01:11:14;;;;;;;;;;;;;;;9.60;56.40;101068.25;5000527;28;7243;-75
2021/12/12 01:13:41;;;;;;;;;;;;;;;9.63;55.84;101075.25;4967920;28;6982;-75
2021/12/12 01:16:19;;;;;;;;;;;;;;;9.65;55.98;101083.91;4954362;28;6988;-75
2021/12/12 01:18:52;;;;;;;;;;;;;;;9.67;55.68;101082.34;4985486;28;6986;-75
2021/12/12 01:21:30;;;;;;;;;;;;;;;9.68;56.47;101079.00;4947748;28;7300;-75
2021/12/12 01:24:25;;;;;;;;;;;;;;;9.70;55.90;101064.63;4994929;28;7240;-75
2021/12/12 01:26:55;;;;;;;;;;;;;;;9.71;56.28;101051.91;4962767;28;7185;-75
2021/12/12 01:29:21;;;;;;;;;;;;;;;9.73;56.40;101057.13;4997712;28;7920;-75
2021/12/12 01:31:48;;;;;;;;;;;;;;;9.76;56.24;101064.09;5005352;28;7221;-75
2021/12/12 01:34:28;;;;;;;;;;;;;;;9.77;56.20;101055.63;5003296;28;6819;-75
2021/12/12 01:37:34;;;;;;;;;;;;;;;9.79;55.42;101060.06;5005939;28;7386;-75
2021/12/12 01:40:25;;;;;;;;;;;;;;;9.80;55.85;101055.81;4975257;28;6828;-75
2021/12/12 01:43:16;;;;;;;;;;;;;;;9.84;55.63;101055.22;4971591;28;7431;-75
2021/12/12 01:45:50;;;;;;;;;;;;;;;9.84;56.50;101048.41;4973666;28;7103;-75
2021/12/12 01:48:36;;;;;;;;;;;;;;;9.89;56.50;101042.72;4976457;28;7156;-75
2021/12/12 01:51:09;;;;;;;;;;;;;;;9.93;56.60;101049.78;4994297;28;7277;-75
2021/12/12 01:53:39;;;;;;;;;;;;;;;9.95;55.57;101049.09;4974791;28;7223;-75
2021/12/12 01:56:18;;;;;;;;;;;;;;;9.98;55.48;101045.81;4970429;28;6996;-75
2021/12/12 01:58:51;;;;;;;;;;;;;;;10.01;56.02;101053.69;5006062;28;6839;-75
2021/12/12 02:01:31;;;;;;;;;;;;;;;10.05;55.84;101042.84;4950619;28;6896;-75
2021/12/12 02:04:07;;;;;;;;;;;;;;;10.06;55.84;101042.06;4986825;28;6970;-75
2021/12/12 02:06:33;;;;;;;;;;;;;;;10.09;55.43;101029.44;4994445;28;6993;-75
2021/12/12 02:09:01;;;;;;;;;;;;;;;10.12;55.73;101032.16;5005216;28;6823;-75
2021/12/12 02:11:32;;;;;;;;;;;;;;;10.15;55.34;101023.78;4987323;28;7362;-75
2021/12/12 02:14:09;;;;;;;;;;;;;;;10.16;55.72;101033.22;5004191;28;7739;-76
2021/12/12 02:17:11;;;;;;;;;;;;;;;10.19;55.60;101024.84;4957894;28;7194;-75
2021/12/12 02:19:59;;;;;;;;;;;;;;;10.21;55.87;101030.94;4974258;28;6828;-75
2021/12/12 02:22:50;;;;;;;;;;;;;;;10.22;55.74;101030.16;4973516;28;6919;-75
2021/12/12 02:36:16;;;;;;;;;;;;;;;10.33;55.02;101023.97;4999420;28;7024;-75
2021/12/12 02:38:42;;;;;;;;;;;;;;;10.37;55.16;101028.50;4971932;28;6982;-76
2021/12/12 02:41:15;;;;;;;;;;;;;;;10.38;54.95;101021.69;4970381;28;6788;-75
2021/12/12 02:43:57;;;;;;;;;;;;;;;10.39;55.23;101021.78;4969439;28;7241;-75
2021/12/12 02:46:33;;;;;;;;;;;;;;;10.37;55.71;101027.59;5004093;28;7001;-75
2021/12/12 02:49:08;;;;;;;;;;;;;;;10.38;55.08;101030.28;4955031;28;6828;-76
2021/12/12 02:51:42;;;;;;;;;;;;;;;10.38;55.53;101024.25;5001624;28;7236;-75
2021/12/12 02:54:10;;;;;;;;;;;;;;;10.38;55.16;101019.13;4980078;28;6816;-76
2021/12/12 02:56:45;;;;;;;;;;;;;;;10.35;55.34;101017.28;4991897;28;6985;-75
2021/12/12 02:59:19;;;;;;;;;;;;;;;10.32;55.53;101016.22;4986239;28;7268;-76
2021/12/12 03:02:03;;;;;;;;;;;;;;;10.27;55.25;101023.63;5001416;28;6828;-75
2021/12/12 03:04:31;;;;;;;;;;;;;;;10.23;55.41;101030.25;4999579;28;6920;-75
2021/12/12 03:06:58;;;;;;;;;;;;;;;10.17;55.38;101019.63;4967640;28;6811;-75
2021/12/12 03:09:27;;;;;;;;;;;;;;;10.10;56.16;101023.50;4984660;28;7009;-75
2021/12/12 03:12:04;;;;;;;;;;;;;;;10.05;56.05;101019.81;4994205;28;7468;-75
2021/12/12 03:14:33;;;;;;;;;;;;;;;10.00;56.64;101010.94;4985602;28;6988;-75
2021/12/12 03:17:23;;;;;;;;;;;;;;;9.96;56.33;101025.25;5000835;28;7202;-75
2021/12/12 03:20:04;;;;;;;;;;;;;;;9.91;56.31;101018.06;4982149;28;6998;-75
2021/12/12 03:22:30;;;;;;;;;;;;;;;9.88;57.36;101030.69;4987774;28;7075;-75
2021/12/12 03:24:56;;;;;;;;;;;;;;;9.84;56.77;101012.56;5008200;28;7197;-75
2021/12/12 03:27:25;;;;;;;;;;;;;;;9.81;57.64;101019.22;4990536;28;7258;-74
2021/12/12 03:29:52;;;;;;;;;;;;;;;9.80;57.30;101023.44;5000480;28;7074;-75
2021/12/12 03:32:22;;;;;;;;;;;;;;;9.79;56.74;101026.78;4968868;28;6970;-75
2021/12/12 03:34:55;;;;;;;;;;;;;;;9.78;58.04;101022.47;4990358;28;6807;-75
2021/12/12 03:37:26;;;;;;;;;;;;;;;9.77;57.89;101027.47;4989219;28;6972;-75
2021/12/12 03:39:56;;;;;;;;;;;;;;;9.75;58.29;101023.94;4972109;28;6852;-75
2021/12/12 03:42:27;;;;;;;;;;;;;;;9.75;58.25;101023.94;4976665;28;7176;-75
2021/12/12 03:44:57;;;;;;;;;;;;;;;9.73;57.46;101021.28;4990391;28;7209;-75
2021/12/12 03:47:40;;;;;;;;;;;;;;;9.73;58.32;101027.28;5006758;28;7335;-75
2021/12/12 03:50:21;;;;;;;;;;;;;;;9.72;58.14;101030.66;4951953;28;7235;-75
2021/12/12 03:52:49;;;;;;;;;;;;;;;9.71;58.65;101023.75;4972931;28;6891;-75
2021/12/12 03:55:17;;;;;;;;;;;;;;;9.72;57.93;101022.06;4969935;28;9223;-75
2021/12/12 03:57:45;;;;;;;;;;;;;;;9.72;58.91;101019.50;5003710;28;7300;-75
2021/12/12 04:00:19;;;;;;;;;;;;;;;9.71;59.02;101023.75;5001702;28;6820;-75
2021/12/12 04:02:45;;;;;;;;;;;;;;;9.70;58.45;101018.53;5002330;28;6981;-75
2021/12/12 04:05:11;;;;;;;;;;;;;;;9.69;59.19;101015.06;4990667;28;7235;-75
2021/12/12 04:07:37;;;;;;;;;;;;;;;9.70;58.45;101016.84;4974985;28;7094;-75
2021/12/12 04:10:09;;;;;;;;;;;;;;;9.69;58.71;101009.97;5006421;28;7160;-75
2021/12/12 04:12:34;;;;;;;;;;;;;;;9.69;59.30;101009.09;5008205;28;6807;-75
2021/12/12 04:15:01;;;;;;;;;;;;;;;9.69;58.91;101009.09;4989878;28;6932;-75
2021/12/12 04:17:31;;;;;;;;;;;;;;;9.68;59.36;101008.19;4969520;28;8047;-75
2021/12/12 04:20:02;;;;;;;;;;;;;;;9.69;59.55;101009.09;4990422;28;6896;-75
2021/12/12 04:22:33;;;;;;;;;;;;;;;9.69;59.50;101015.06;4975177;28;6804;-75
2021/12/12 04:24:59;;;;;;;;;;;;;;;9.71;59.53;101022.88;4968466;28;6807;-75
2021/12/12 04:27:26;;;;;;;;;;;;;;;9.73;59.35;101011.03;5009089;28;7267;-75
2021/12/12 04:29:54;;;;;;;;;;;;;;;9.74;59.81;101012.81;4985945;28;6974;-75
2021/12/12 04:32:27;;;;;;;;;;;;;;;9.78;59.66;101019.00;4995421;28;7040;-75
2021/12/12 04:35:22;;;;;;;;;;;;;;;9.80;59.92;101010.63;4994364;28;6820;-75
2021/12/12 04:37:49;;;;;;;;;;;;;;;9.82;59.61;101003.06;4997882;28;6796;-75
2021/12/12 04:40:19;;;;;;;;;;;;;;;9.83;59.83;101009.94;5004425;28;6895;-75
2021/12/12 04:42:49;;;;;;;;;;;;;;;9.83;59.65;101002.25;5008561;28;6979;-75
2021/12/12 04:46:20;;;;;;;;;;;;;;;9.82;60.51;101011.59;4984032;28;7203;-75
2021/12/12 04:51:41;;;;;;;;;;;;;;;9.82;61.35;100991.13;4996097;28;6892;-75
2021/12/12 04:54:39;;;;;;;;;;;;;;;9.84;60.57;100999.75;4975672;28;6899;-75
2021/12/12 04:57:29;;;;;;;;;;;;;;;9.85;60.46;100991.31;4987903;28;6923;-75
2021/12/12 05:00:11;;;;;;;;;;;;;;;9.85;61.51;100991.31;4986819;28;7140;-75
2021/12/12 05:03:18;;;;;;;;;;;;;;;9.86;60.73;100987.97;4988444;28;7957;-75
2021/12/12 05:05:59;;;;;;;;;;;;;;;9.88;61.06;100994.84;4989588;28;7013;-75
2021/12/12 05:08:52;;;;;;;;;;;;;;;9.87;60.84;101001.63;4992397;28;7162;-75
2021/12/12 05:11:47;;;;;;;;;;;;;;;9.90;61.32;100993.25;4990391;28;7315;-75
2021/12/12 05:14:23;;;;;;;;;;;;;;;9.92;61.63;101002.81;5007032;28;6839;-76
2021/12/12 05:17:32;;;;;;;;;;;;;;;9.96;61.11;101001.31;4993487;28;6996;-75
2021/12/12 05:20:03;;;;;;;;;;;;;;;9.96;61.76;100993.66;5000682;28;7218;-75
2021/12/12 05:22:47;;;;;;;;;;;;;;;9.99;61.26;100999.84;5005100;28;7191;-75
2021/12/12 05:25:24;;;;;;;;;;;;;;;10.03;61.31;100994.88;4972357;28;6873;-75
2021/12/12 05:27:54;;;;;;;;;;;;;;;10.05;61.83;101000.97;4974166;28;6898;-75
2021/12/12 05:30:31;;;;;;;;;;;;;;;10.06;62.35;100995.97;4991337;28;6815;-75
2021/12/12 05:32:59;;;;;;;;;;;;;;;10.10;62.29;100997.03;4968206;28;7427;-75
2021/12/12 05:35:35;;;;;;;;;;;;;;;10.12;62.42;100993.75;5006503;28;7292;-75
2021/12/12 05:38:04;;;;;;;;;;;;;;;10.16;62.04;100988.81;4977292;28;7199;-75
2021/12/12 05:40:35;;;;;;;;;;;;;;;10.18;62.06;100987.22;5006748;28;6804;-75
2021/12/12 05:43:02;;;;;;;;;;;;;;;10.21;62.19;100997.66;4969589;28;7252;-75
2021/12/12 05:45:31;;;;;;;;;;;;;;;10.23;62.60;100999.50;4988834;28;6879;-75
2021/12/12 05:47:59;;;;;;;;;;;;;;;10.27;62.72;101004.00;5001748;28;7143;-75
2021/12/12 05:50:27;;;;;;;;;;;;;;;10.31;62.34;101012.75;5005681;28;7190;-75
2021/12/12 05:52:54;;;;;;;;;;;;;;;10.33;62.75;101012.88;4987920;28;6977;-75
2021/12/12 05:55:30;;;;;;;;;;;;;;;10.35;62.37;100991.66;4989868;28;6820;-75
2021/12/12 05:58:00;;;;;;;;;;;;;;;10.39;62.03;100998.72;4991312;28;7225;-75
2021/12/12 06:00:34;;;;;;;;;;;;;;;10.40;62.38;101009.88;5000435;28;8179;-75
2021/12/12 06:03:06;;;;;;;;;;;;;;;10.44;62.31;101016.09;5005948;28;7257;-75
2021/12/12 06:05:32;;;;;;;;;;;;;;;10.44;62.57;101009.28;4988961;28;7171;-75
2021/12/12 06:07:58;;;;;;;;;;;;;;;10.45;62.42;101005.91;4988972;28;6796;-75
2021/12/12 06:10:25;;;;;;;;;;;;;;;10.47;62.48;101009.44;4988634;28;7253;-75
2021/12/12 06:12:54;;;;;;;;;;;;;;;10.50;62.95;100999.41;5003258;28;7249;-75
2021/12/12 06:15:23;;;;;;;;;;;;;;;10.50;62.37;101003.63;5006485;28;6812;-75
2021/12/12 06:17:51;;;;;;;;;;;;;;;10.53;62.74;101006.38;4970499;28;6808;-75
2021/12/12 06:20:20;;;;;;;;;;;;;;;10.53;62.66;101003.81;4970644;28;7860;-75
2021/12/12 06:22:50;;;;;;;;;;;;;;;10.54;62.94;101010.72;4954064;28;7254;-75
2021/12/12 06:25:16;;;;;;;;;;;;;;;10.55;62.71;101007.34;4981319;28;7000;-75
2021/12/12 06:27:43;;;;;;;;;;;;;;;10.56;62.50;101009.97;4984143;28;7224;-75
2021/12/12 06:30:16;;;;;;;;;;;;;;;10.60;62.91;101021.28;4972015;28;7180;-75
2021/12/12 06:32:45;;;;;;;;;;;;;;;10.61;62.71;101032.44;4954236;28;6812;-74
2021/12/12 06:35:11;;;;;;;;;;;;;;;10.63;63.08;101036.88;4970707;28;7208;-74
2021/12/12 06:37:39;;;;;;;;;;;;;;;10.65;62.73;101037.84;4983622;28;6993;-75
2021/12/12 06:40:08;;;;;;;;;;;;;;;10.66;62.83;101024.22;4999229;28;6804;-75
2021/12/12 06:42:35;;;;;;;;;;;;;;;10.66;63.12;101031.91;4969789;28;6808;-75
2021/12/12 06:45:01;;;;;;;;;;;;;;;10.67;62.62;101028.56;5001643;28;7275;-75
2021/12/12 06:47:27;;;;;;;;;;;;;;;10.68;63.17;101025.19;4983305;28;7049;-75
2021/12/12 06:49:53;;;;;;;;;;;;;;;10.70;63.07;101038.97;4986219;28;6816;-75
2021/12/12 06:52:20;;;;;;;;;;;;;;;10.72;62.94;101026.25;4969268;28;6958;-75
2021/12/12 06:54:47;;;;;;;;;;;;;;;10.74;62.31;101032.34;4986097;28;7010;-75
2021/12/12 06:57:15;;;;;;;;;;;;;;;10.76;62.95;101035.88;5006795;28;6792;-75
2021/12/12 06:59:49;;;;;;;;;;;;;;;10.77;62.59;101036.78;5007232;28;7263;-75
2021/12/12 07:02:16;;;;;;;;;;;;;;;10.78;62.86;101026.63;5010405;28;7185;-75
2021/12/12 07:04:44;;;;;;;;;;;;;;;10.82;62.62;101037.94;4971643;28;6951;-75
2021/12/12 07:07:13;;;;;;;;;;;;;;;10.83;62.54;101038.00;4971511;28;6800;-75
2021/12/12 07:09:41;;;;;;;;;;;;;;;10.85;62.76;101038.09;5004585;28;7042;-75
2021/12/12 07:12:12;;;;;;;;;;;;;;;10.87;62.83;101041.63;4992956;28;6973;-75
2021/12/12 07:14:39;;;;;;;;;;;;;;;10.89;62.25;101041.72;5007403;28;6985;-75
2021/12/12 07:17:07;;;;;;;;;;;;;;;10.91;62.13;101035.00;4986241;28;6824;-75
2021/12/12 07:19:35;;;;;;;;;;;;;;;10.91;62.45;101043.59;4969411;28;6958;-75
2021/12/12 07:22:02;;;;;;;;;;;;;;;10.93;62.52;101036.88;5006907;28;7294;-75
2021/12/12 07:24:31;;;;;;;;;;;;;;;10.94;62.43;101035.16;5005129;28;6803;-75
2021/12/12 07:26:58;;;;;;;;;;;;;;;10.95;62.00;101044.63;4990298;28;6995;-75
2021/12/12 07:29:26;;;;;;;;;;;;;;;10.94;62.44;101046.31;4999640;28;6887;-75
2021/12/12 07:31:53;;;;;;;;;;;;;;;10.95;62.79;101040.38;5008469;28;6827;-75
2021/12/12 07:34:19;;;;;;;;;;;;;;;10.95;62.21;101031.78;4972842;28;6804;-75
2021/12/12 07:36:59;;;;;;;;;;;;;;;10.96;62.47;101036.13;4989047;28;7216;-74
2021/12/12 07:39:26;;;;;;;;;;;;;;;10.96;62.29;101038.69;4986731;28;7054;-75
2021/12/12 07:41:55;;;;;;;;;;;;;;;10.94;62.09;101041.19;4981626;28;7410;-75
2021/12/12 07:44:28;;;;;;;;;;;;;;;10.94;62.32;101038.63;4956883;28;6804;-74
2021/12/12 07:46:57;;;;;;;;;;;;;;;10.93;62.33;101036.88;5008021;28;6844;-74
2021/12/12 07:49:31;;;;;;;;;;;;;;;10.95;62.54;101034.38;4974661;28;7000;-75
2021/12/12 07:51:58;;;;;;;;;;;;;;;10.93;62.50;101031.72;5003959;28;7167;-75
2021/12/12 07:54:24;;;;;;;;;;;;;;;10.93;62.70;101035.97;5003741;28;7184;-75
2021/12/12 07:56:50;;;;;;;;;;;;;;;10.94;62.57;101030.03;4986948;28;6903;-75
2021/12/12 07:59:18;;;;;;;;;;;;;;;10.94;62.73;101035.16;4983679;28;6969;-75
2021/12/12 08:01:49;;;;;;;;;;;;;;;10.94;62.31;101042.84;5003103;28;6812;-74
2021/12/12 08:04:21;;;;;;;;;;;;;;;10.96;62.54;101044.72;5013905;28;7222;-75
2021/12/12 08:06:49;;;;;;;;;;;;;;;10.98;62.33;101037.13;5007442;28;6812;-75
2021/12/12 08:09:15;;;;;;;;;;;;;;;10.99;62.45;101051.72;5007405;28;7274;-75
2021/12/12 08:11:44;;;;;;;;;;;;;;;11.00;62.50;101058.59;4968238;28;7019;-75
2021/12/12 08:14:18;;;;;;;;;;;;;;;11.02;62.53;101045.88;5006558;28;6883;-75
2021/12/12 08:16:48;;;;;;;;;;;;;;;11.03;62.55;101058.78;4972787;28;7165;-74
2021/12/12 08:19:18;;;;;;;;;;;;;;;11.07;62.91;101062.41;4969551;28;6824;-75
2021/12/12 08:21:44;;;;;;;;;;;;;;;11.10;62.50;101065.13;4973335;28;7349;-74
2021/12/12 08:24:12;;;;;;;;;;;;;;;11.12;62.28;101071.25;5005514;28;6981;-74
2021/12/12 08:26:41;;;;;;;;;;;;;;;11.16;62.75;101085.16;4981596;28;7141;-74
2021/12/12 08:29:10;;;;;;;;;;;;;;;11.20;62.12;101087.97;4992506;28;7205;-74
2021/12/12 08:31:37;;;;;;;;;;;;;;;11.24;62.58;101087.31;5011585;28;7081;-74
2021/12/12 08:34:10;;;;;;;;;;;;;;;11.27;62.23;101083.16;5009865;28;6816;-74
2021/12/12 08:36:42;;;;;;;;;;;;;;;11.30;62.33;101088.44;4973468;28;7200;-74
2021/12/12 08:39:11;;;;;;;;;;;;;;;11.32;62.37;101086.88;5010179;28;6804;-74
2021/12/12 08:41:38;;;;;;;;;;;;;;;11.33;62.01;101088.66;4990558;28;7206;-74
2021/12/12 08:44:06;;;;;;;;;;;;;;;11.35;62.31;101087.03;4990945;28;7833;-74
2021/12/12 08:46:32;;;;;;;;;;;;;;;11.38;62.02;101088.09;5009211;28;6819;-74
2021/12/12 08:49:01;;;;;;;;;;;;;;;11.39;61.97;101097.56;5008535;28;6792;-74
2021/12/12 08:51:36;;;;;;;;;;;;;;;11.42;61.59;101094.28;4971282;28;6812;-74
2021/12/12 08:54:15;;;;;;;;;;;;;;;11.44;61.97;101105.53;5003452;28;7267;-74
2021/12/12 08:56:50;;;;;;;;;;;;;;;11.46;61.94;101123.59;4993354;28;7027;-74
2021/12/12 08:59:24;;;;;;;;;;;;;;;11.48;61.72;101115.16;4959624;28;8247;-74
2021/12/12 09:01:56;;;;;;;;;;;;;;;11.53;61.47;101103.47;4955288;28;7269;-74
2021/12/12 09:04:23;;;;;;;;;;;;;;;11.55;61.87;101101.00;4982982;28;6892;-75
2021/12/12 09:07:35;;;;;;;;;;;;;;;11.58;61.95;101114.00;4994876;28;6800;-75
2021/12/12 09:10:17;;;;;;;;;;;;;;;11.62;61.11;101112.47;4957505;28;6812;-75
2021/12/12 09:13:05;;;;;;;;;;;;;;;11.65;61.97;101112.66;4991981;28;7071;-75
2021/12/12 09:15:53;;;;;;;;;;;;;;;11.72;61.72;101103.59;5003390;28;7012;-75
2021/12/12 09:18:30;;;;;;;;;;;;;;;11.77;61.91;101118.44;5001521;28;6811;-75
2021/12/12 09:21:13;;;;;;;;;;;;;;;11.85;61.73;101120.53;4966810;28;6808;-75
2021/12/12 09:23:50;;;;;;;;;;;;;;;11.91;61.38;101115.75;4973053;28;7256;-74
2021/12/12 09:26:25;;;;;;;;;;;;;;;11.96;61.44;101111.72;4989679;28;7284;-74
2021/12/12 09:29:01;;;;;;;;;;;;;;;12.04;61.55;101120.78;4970962;28;6816;-74
2021/12/12 09:31:34;;;;;;;;;;;;;;;12.09;60.53;101128.72;4989656;28;7645;-74
2021/12/12 09:34:18;;;;;;;;;;;;;;;12.15;60.80;101123.03;4968354;28;6955;-75
2021/12/12 09:36:59;;;;;;;;;;;;;;;12.21;61.20;101118.22;5001688;28;7352;-75
2021/12/12 09:40:06;;;;;;;;;;;;;;;12.24;60.42;101131.22;5004833;28;6816;-75
2021/12/12 09:42:54;;;;;;;;;;;;;;;12.27;60.83;101131.41;4949154;28;6931;-74
2021/12/12 09:46:06;;;;;;;;;;;;;;;12.32;60.39;101129.94;4982952;28;7142;-74
2021/12/12 09:52:22;;;;;;;;;;;;;;;12.47;60.76;101144.41;4996609;28;7345;-74
2021/12/12 09:55:21;;;;;;;;;;;;;;;12.54;59.98;101131.06;4949784;28;7227;-74
2021/12/12 09:58:00;;;;;;;;;;;;;;;12.59;60.19;101145.06;5002232;28;6828;-74
2021/12/12 10:00:49;;;;;;;;;;;;;;;12.62;59.84;101134.91;4985643;28;7846;-74
2021/12/12 10:03:26;;;;;;;;;;;;;;;12.67;59.82;101135.16;4970192;28;6981;-74
2021/12/12 10:06:16;;;;;;;;;;;;;;;12.68;59.99;101124.06;4986940;28;7033;-74
2021/12/12 10:08:54;;;;;;;;;;;;;;;12.71;60.32;101131.03;5004814;28;6815;-74
2021/12/12 10:11:41;;;;;;;;;;;;;;;12.73;59.77;101134.56;4990139;28;7199;-74
2021/12/12 10:15:04;;;;;;;;;;;;;;;12.74;59.48;101136.34;5000971;28;7131;-74
2021/12/12 10:18:21;;;;;;;;;;;;;;;12.75;59.50;101127.84;4987799;28;6977;-74
2021/12/12 10:21:05;;;;;;;;;;;;;;;12.74;60.21;101128.63;4976047;28;7022;-74
2021/12/12 10:24:04;;;;;;;;;;;;;;;12.72;59.24;101127.66;4997792;28;6910;-75
2021/12/12 10:26:41;;;;;;;;;;;;;;;12.67;60.52;101126.56;5009061;28;6864;-74
2021/12/12 10:29:26;;;;;;;;;;;;;;;12.63;59.69;101126.38;5011701;28;6804;-74
2021/12/12 10:32:18;;;;;;;;;;;;;;;12.66;60.80;101124.81;4973769;28;7157;-74
2021/12/12 10:34:58;;;;;;;;;;;;;;;12.69;60.45;101130.09;5014815;28;7035;-74
2021/12/12 10:37:54;;;;;;;;;;;;;;;12.76;60.92;101125.31;5011110;28;6986;-74
2021/12/12 10:40:48;;;;;;;;;;;;;;;12.86;59.94;101133.50;4982601;28;7023;-74
2021/12/12 10:43:23;;;;;;;;;;;;;;;12.92;60.76;101129.56;5011447;28;6895;-75
2021/12/12 10:46:18;;;;;;;;;;;;;;;12.98;60.70;101138.41;5009156;28;7224;-75
2021/12/12 10:49:19;;;;;;;;;;;;;;;13.01;60.65;101134.28;5004832;28;6903;-74
2021/12/12 10:52:16;;;;;;;;;;;;;;;13.05;60.98;101141.34;4990889;28;7041;-74
2021/12/12 10:55:03;;;;;;;;;;;;;;;13.10;60.30;101131.28;5000083;28;7287;-74
2021/12/12 10:57:34;;;;;;;;;;;;;;;13.11;59.87;101130.47;4992242;28;6984;-75
2021/12/12 11:00:36;;;;;;;;;;;;;;;13.12;60.81;101126.22;4976990;28;7304;-75
2021/12/12 11:03:19;;;;;;;;;;;;;;;13.14;60.16;101127.16;4953568;28;6915;-76
2021/12/12 11:06:02;;;;;;;;;;;;;;;13.22;61.20;101124.97;5005622;28;6823;-76
2021/12/12 11:11:31;;;;;;;;;;;;;;;13.32;59.86;101130.66;5015978;23;6953;-73
2021/12/12 11:14:11;;;;;;;;;;;;;;;13.30;59.72;101131.38;4996449;28;7030;-72
2021/12/12 11:16:55;;;;;;;;;;;;;;;13.23;59.69;101135.34;5011032;28;6844;-73
2021/12/12 11:19:45;;;;;;;;;;;;;;;13.15;60.82;101134.97;4999275;28;6974;-72
2021/12/12 11:22:23;;;;;;;;;;;;;;;13.10;60.76;101127.84;4995450;28;6808;-71
2021/12/12 11:25:09;;;;;;;;;;;;;;;13.04;60.23;101138.72;4995259;28;6796;-72
2021/12/12 11:27:50;;;;;;;;;;;;;;;13.03;60.53;101135.25;5010413;28;6895;-71
2021/12/12 11:30:26;;;;;;;;;;;;;;;13.04;61.50;101138.72;5002350;28;6836;-71
2021/12/12 11:32:57;;;;;;;;;;;;;;;13.09;60.82;101136.38;4987630;28;7074;-73
2021/12/12 11:35:27;;;;;;;;;;;;;;;13.12;60.64;101136.50;4995576;28;6807;-73
2021/12/12 11:38:11;;;;;;;;;;;;;;;13.11;60.63;101140.75;5016366;28;6803;-72
2021/12/12 11:40:49;;;;;;;;;;;;;;;13.06;60.82;101143.09;5001281;28;6807;-72
2021/12/12 11:43:37;;;;;;;;;;;;;;;13.00;61.58;101142.81;5014377;28;6816;-72
2021/12/12 11:46:18;;;;;;;;;;;;;;;12.96;60.62;101138.31;4999440;28;6981;-72
2021/12/12 11:49:25;;;;;;;;;;;;;;;12.91;61.58;101139.78;4984041;28;6949;-71
2021/12/12 11:52:02;;;;;;;;;;;;;;;12.88;61.70;101149.91;5006922;28;7002;-71
2021/12/12 11:54:54;;;;;;;;;;;;;;;12.87;62.00;101155.84;4994903;28;6824;-71
2021/12/12 11:57:30;;;;;;;;;;;;;;;12.87;61.95;101156.75;4990297;28;7227;-72
2021/12/12 12:00:30;;;;;;;;;;;;;;;12.90;62.43;101151.75;5011868;28;7034;-71
2021/12/12 12:03:14;;;;;;;;;;;;;;;12.94;62.05;101147.66;5012695;28;6864;-72
2021/12/12 12:06:20;;;;;;;;;;;;;;;12.98;62.17;101153.84;5003011;28;6796;-72
2021/12/12 12:09:41;;;;;;;;;;;;;;;12.99;62.33;101148.78;4998454;28;7294;-72
2021/12/12 12:12:51;;;;;;;;;;;;;;;13.02;62.24;101150.59;4999184;28;6887;-72
2021/12/12 12:15:53;;;;;;;;;;;;;;;13.03;61.84;101152.34;4972535;28;6832;-72
2021/12/12 12:18:34;;;;;;;;;;;;;;;13.06;61.76;101150.81;4996391;28;7277;-72
2021/12/12 12:21:17;;;;;;;;;;;;;;;13.10;61.52;101158.72;5008392;28;7007;-72
2021/12/12 12:24:10;;;;;;;;;;;;;;;13.13;62.28;101153.72;4984412;28;7269;-71
2021/12/12 12:26:51;;;;;;;;;;;;;;;13.15;61.32;101158.13;4990041;28;6911;-71
2021/12/12 12:29:32;;;;;;;;;;;;;;;13.15;62.32;101150.41;5006567;28;7002;-71
2021/12/12 12:32:04;;;;;;;;;;;;;;;13.15;62.44;101145.28;4992082;28;6887;-72
2021/12/12 12:35:59;;;;;;;;;;;;;;;13.17;62.33;101160.75;5007740;28;6895;-72
2021/12/12 12:39:02;;;;;;;;;;;;;;;13.13;62.35;101162.31;4938260;28;7232;-72
2021/12/12 12:41:49;;;;;;;;;;;;;;;13.12;61.56;101169.97;5002644;28;7128;-71
2021/12/12 12:45:24;;;;;;;;;;;;;;;13.11;62.40;101165.63;5008938;28;6795;-71
2021/12/12 12:48:12;;;;;;;;;;;;;;;13.07;62.48;101164.59;5008888;28;6887;-71
2021/12/12 12:50:40;;;;;;;;;;;;;;;13.06;61.46;101168.84;5014069;28;7706;-71
2021/12/12 12:53:56;;;;;;;;;;;;;;;13.02;61.58;101164.38;4987324;28;7087;-71
2021/12/12 12:57:18;;;;;;;;;;;;;;;12.96;62.73;101173.47;4989020;28;7061;-71
2021/12/12 12:59:51;;;;;;;;;;;;;;;12.90;62.71;101166.31;4994948;28;7283;-71
2021/12/12 13:02:28;;;;;;;;;;;;;;;12.89;62.95;101169.66;4985512;28;7102;-72
2021/12/12 13:04:58;;;;;;;;;;;;;;;12.90;63.22;101172.34;4994364;28;6883;-72
2021/12/12 13:07:48;;;;;;;;;;;;;;;12.91;62.85;101170.66;5019914;28;6839;-72
2021/12/12 13:10:19;;;;;;;;;;;;;;;12.92;63.10;101164.72;4994629;28;6816;-72
2021/12/12 13:13:19;;;;;;;;;;;;;;;12.94;62.72;101173.38;5017116;28;6811;-72
2021/12/12 13:16:07;;;;;;;;;;;;;;;12.96;63.21;101168.31;4984995;28;7457;-72
2021/12/12 13:18:58;;;;;;;;;;;;;;;12.96;62.50;101171.75;4989859;28;7237;-72
2021/12/12 13:21:36;;;;;;;;;;;;;;;12.95;62.56;101174.28;4997071;28;6820;-71
2021/12/12 13:24:32;;;;;;;;;;;;;;;12.93;62.85;101181.91;4974184;28;7206;-72
2021/12/12 13:30:26;;;;;;;;;;;;;;;12.90;62.57;101169.75;5016190;28;6828;-72
2021/12/12 13:33:00;;;;;;;;;;;;;;;12.88;62.87;101168.81;5000969;28;7084;-72
2021/12/12 13:36:38;;;;;;;;;;;;;;;12.89;62.61;101170.56;5019463;28;7375;-72
2021/12/12 13:39:19;;;;;;;;;;;;;;;12.85;62.76;101160.94;4948234;28;7019;-72
2021/12/12 13:42:10;;;;;;;;;;;;;;;12.87;62.75;101161.91;4967315;28;6821;-72
2021/12/12 13:45:04;;;;;;;;;;;;;;;12.89;63.55;101161.97;5004661;28;7552;-72
2021/12/12 13:47:50;;;;;;;;;;;;;;;12.92;63.79;101172.44;5020952;28;6820;-72
2021/12/12 13:50:21;;;;;;;;;;;;;;;12.95;63.22;101177.72;5019379;28;6828;-72
2021/12/12 13:53:08;;;;;;;;;;;;;;;12.97;62.87;101178.66;5017864;28;7216;-71
2021/12/12 13:55:47;;;;;;;;;;;;;;;12.99;62.89;101186.47;5004543;28;6807;-72
2021/12/12 13:58:37;;;;;;;;;;;;;;;13.00;62.83;101175.38;4985605;28;6977;-71
2021/12/12 14:01:18;;;;;;;;;;;;;;;13.01;63.54;101180.59;5001952;28;6816;-71
2021/12/12 14:04:03;;;;;;;;;;;;;;;13.04;63.30;101182.47;4989654;28;7095;-71
2021/12/12 14:06:33;;;;;;;;;;;;;;;13.04;62.75;101185.03;4989277;28;6827;-71
2021/12/12 14:09:16;;;;;;;;;;;;;;;13.05;62.88;101190.25;4987913;28;7086;-71